Time;durP1;ratioP1;P1;durP2;ratioP2;P2;SDS_P1;SDS_P2;PMS_P1;PMS_P2;Temp;Humidity;BMP_temperature;BMP_pressure;BME280_temperature;BME280_humidity;BME280_pressure;Samples;Min_cycle;Max_cycle;Signal;HPM_P1;HPM_P2
2022/11/04 00:01:29;;;;;;;45.90;12.13;;;11.70;99.90;;;;;;5063369;28;21111;-62
2022/11/04 00:03:56;;;;;;;45.93;9.03;;;11.70;99.90;;;;;;5084474;28;20992;-62
2022/11/04 00:06:23;;;;;;;49.47;13.27;;;11.80;99.90;;;;;;5064030;28;20989;-62
2022/11/04 00:08:53;;;;;;;41.40;9.40;;;11.70;99.90;;;;;;5065324;28;20478;-62
2022/11/04 00:14:06;;;;;;;38.20;8.87;;;11.80;99.90;;;;;;5071201;28;20493;-62
2022/11/04 00:19:18;;;;;;;44.00;13.87;;;;;;;;;;5065815;28;20497;-62
2022/11/04 00:30:02;;;;;;;29.73;6.73;;;;;;;;;;5076706;28;20466;-62
2022/11/04 00:35:15;;;;;;;29.00;9.23;;;11.50;99.90;;;;;;5046779;28;20477;-62
2022/11/04 00:37:44;;;;;;;16.63;5.80;;;11.50;99.90;;;;;;5069458;28;20982;-63
2022/11/04 00:40:15;;;;;;;25.13;8.87;;;11.40;99.90;;;;;;5062585;28;20550;-63
2022/11/04 00:42:44;;;;;;;40.80;8.73;;;11.40;99.90;;;;;;5060674;28;20575;-63
2022/11/04 00:45:11;;;;;;;32.00;8.40;;;11.40;99.90;;;;;;5080841;28;20474;-62
2022/11/04 00:47:38;;;;;;;21.47;7.77;;;11.40;99.90;;;;;;5063427;28;20479;-63
2022/11/04 00:50:06;;;;;;;21.43;7.20;;;11.30;99.90;;;;;;5065707;28;20824;-62
2022/11/04 00:52:33;;;;;;;21.33;6.57;;;11.40;99.90;;;;;;5066899;28;20518;-62
2022/11/04 00:54:59;;;;;;;26.10;8.10;;;11.30;99.90;;;;;;5065080;28;20477;-62
2022/11/04 00:57:28;;;;;;;66.57;12.47;;;11.40;99.90;;;;;;5075674;28;20470;-62
2022/11/04 00:59:55;;;;;;;32.83;8.87;;;11.40;99.90;;;;;;5069626;28;20853;-62
2022/11/04 01:02:22;;;;;;;56.73;12.13;;;11.40;99.90;;;;;;5070136;28;20837;-63
2022/11/04 01:04:49;;;;;;;33.63;7.77;;;11.40;99.90;;;;;;5072911;28;20486;-62
2022/11/04 01:07:15;;;;;;;59.40;12.63;;;11.50;99.90;;;;;;5066692;28;20678;-62
2022/11/04 01:09:43;;;;;;;29.43;7.10;;;11.50;99.90;;;;;;5072658;28;20486;-62
2022/11/04 01:12:09;;;;;;;37.63;7.13;;;11.50;99.90;;;;;;5069129;28;20582;-62
2022/11/04 01:14:37;;;;;;;17.80;5.53;;;11.40;99.90;;;;;;5068260;28;20490;-63
2022/11/04 01:17:04;;;;;;;28.80;9.80;;;11.40;99.90;;;;;;5037022;28;20486;-62
2022/11/04 01:19:31;;;;;;;28.30;6.90;;;11.30;99.90;;;;;;5080074;28;21029;-63
2022/11/04 01:21:58;;;;;;;14.83;6.53;;;11.40;99.90;;;;;;5065556;28;21030;-62
2022/11/04 01:24:25;;;;;;;27.80;10.67;;;11.20;99.90;;;;;;5068175;28;20484;-62
2022/11/04 01:26:52;;;;;;;28.67;8.53;;;11.20;99.90;;;;;;5043945;28;21167;-62
2022/11/04 01:29:20;;;;;;;32.13;10.93;;;11.20;99.90;;;;;;5071634;28;21037;-62
2022/11/04 01:31:48;;;;;;;16.07;6.03;;;11.20;99.90;;;;;;5070517;28;20489;-62
2022/11/04 01:34:14;;;;;;;24.77;7.90;;;11.20;99.90;;;;;;5065573;28;20509;-62
2022/11/04 01:36:41;;;;;;;18.63;7.23;;;11.20;99.90;;;;;;5070218;28;20486;-62
2022/11/04 01:39:09;;;;;;;19.87;6.70;;;11.20;99.90;;;;;;5068608;28;20494;-62
2022/11/04 01:41:35;;;;;;;14.57;3.40;;;11.20;99.90;;;;;;5067118;28;20536;-62
2022/11/04 01:44:04;;;;;;;17.10;6.83;;;11.20;99.90;;;;;;5066181;28;20536;-63
2022/11/04 01:46:37;;;;;;;26.67;7.53;;;11.20;99.90;;;;;;5067848;28;20482;-62
2022/11/04 01:49:19;;;;;;;18.77;6.07;;;11.30;99.90;;;;;;5069667;28;21084;-61
2022/11/04 01:51:48;;;;;;;29.80;7.30;;;9.80;99.90;;;;;;5069624;28;20485;-62
2022/11/04 01:54:15;;;;;;;25.43;6.80;;;11.20;99.90;;;;;;5057836;28;20550;-61
2022/11/04 01:56:45;;;;;;;23.00;8.07;;;11.20;99.90;;;;;;5063731;28;20486;-62
2022/11/04 01:59:16;;;;;;;26.13;9.07;;;11.20;99.90;;;;;;5070075;28;20982;-62
2022/11/04 02:01:43;;;;;;;13.33;5.97;;;11.20;99.90;;;;;;5071686;28;20964;-62
2022/11/04 02:04:25;;;;;;;19.47;7.90;;;11.10;99.90;;;;;;5071029;28;20485;-62
2022/11/04 02:06:55;;;;;;;30.97;9.03;;;9.40;99.90;;;;;;5051831;28;20481;-63
2022/11/04 02:09:23;;;;;;;23.87;9.80;;;;;;;;;;5081485;28;20606;-61
2022/11/04 02:14:36;;;;;;;24.10;7.63;;;11.00;99.90;;;;;;5073271;28;20497;-62
2022/11/04 02:17:12;;;;;;;24.30;8.80;;;11.00;99.90;;;;;;5071867;28;20490;-61
2022/11/04 02:20:00;;;;;;;24.60;7.47;;;;;;;;;;5072615;28;21031;-62
2022/11/04 02:23:06;;;;;;;33.43;10.00;;;11.00;99.90;;;;;;5058385;28;20807;-62
2022/11/04 02:25:48;;;;;;;29.03;6.83;;;;;;;;;;5055340;28;20681;-62
2022/11/04 02:28:34;;;;;;;28.77;7.27;;;11.00;99.90;;;;;;5059874;28;20486;-62
2022/11/04 02:31:07;;;;;;;34.00;7.47;;;;;;;;;;5063514;28;20501;-62
2022/11/04 02:33:40;;;;;;;28.37;7.33;;;11.00;99.90;;;;;;5072807;28;20521;-62
2022/11/04 02:36:11;;;;;;;41.03;7.23;;;;;;;;;;5071073;28;20486;-63
2022/11/04 02:38:48;;;;;;;34.97;6.93;;;9.30;99.90;;;;;;5069887;28;20489;-63
2022/11/04 02:41:21;;;;;;;59.23;9.20;;;10.90;99.90;;;;;;5067012;28;20482;-62
2022/11/04 02:43:57;;;;;;;29.73;7.93;;;10.90;99.90;;;;;;5060875;28;20467;-61
2022/11/04 02:46:32;;;;;;;59.53;14.67;;;10.80;99.90;;;;;;5076551;28;20488;-61
2022/11/04 02:49:05;;;;;;;42.73;6.60;;;10.80;99.90;;;;;;5070180;28;20494;-61
2022/11/04 02:51:39;;;;;;;33.40;9.90;;;10.80;99.90;;;;;;5064044;28;20574;-61
2022/11/04 02:54:10;;;;;;;37.10;7.20;;;10.80;99.90;;;;;;5077984;28;20482;-62
2022/11/04 02:56:42;;;;;;;40.43;8.60;;;10.80;99.90;;;;;;5069491;28;20505;-61
2022/11/04 02:59:13;;;;;;;67.47;11.33;;;10.80;99.90;;;;;;5067066;28;20557;-63
2022/11/04 03:01:43;;;;;;;28.13;6.13;;;;;;;;;;5063932;28;21073;-62
2022/11/04 03:04:14;;;;;;;53.37;9.00;;;12.20;99.90;;;;;;5072309;28;20478;-64
2022/11/04 03:06:43;;;;;;;53.60;8.00;;;10.60;99.90;;;;;;5079630;28;20545;-62
2022/11/04 03:09:12;;;;;;;41.03;7.10;;;;;;;;;;5069865;28;20487;-61
2022/11/04 03:11:41;;;;;;;49.97;7.37;;;;;;;;;;5076923;28;20563;-62
2022/11/04 03:14:13;;;;;;;43.83;8.80;;;10.60;99.90;;;;;;5075590;28;20474;-62
2022/11/04 03:16:46;;;;;;;33.50;5.60;;;10.70;99.90;;;;;;5081626;28;20881;-61
2022/11/04 03:19:19;;;;;;;42.87;7.50;;;10.70;99.90;;;;;;5067193;28;20485;-61
2022/11/04 03:21:51;;;;;;;25.83;6.83;;;10.60;99.90;;;;;;5080271;28;20481;-61
2022/11/04 03:24:18;;;;;;;60.00;14.33;;;;;;;;;;5068344;28;20810;-62
2022/11/04 03:26:47;;;;;;;48.30;11.37;;;;;;;;;;5058594;28;20490;-61
2022/11/04 03:29:23;;;;;;;55.87;10.97;;;10.60;99.90;;;;;;5067841;28;20490;-61
2022/11/04 03:32:00;;;;;;;44.97;7.83;;;10.60;99.90;;;;;;5071206;28;20482;-61
2022/11/04 03:34:28;;;;;;;41.90;10.70;;;10.70;99.90;;;;;;5072241;28;20486;-61
2022/11/04 03:36:55;;;;;;;45.53;11.23;;;;;;;;;;5071526;28;20473;-61
2022/11/04 03:39:22;;;;;;;73.83;14.53;;;;;;;;;;5071800;28;20473;-60
2022/11/04 03:41:52;;;;;;;56.17;9.27;;;10.70;99.90;;;;;;5064907;28;20478;-61
2022/11/04 03:44:19;;;;;;;58.73;10.57;;;10.70;99.90;;;;;;5081081;28;20868;-61
2022/11/04 03:46:46;;;;;;;55.03;8.57;;;10.70;99.90;;;;;;5062014;28;20533;-62
2022/11/04 03:49:15;;;;;;;47.73;9.60;;;;;;;;;;5071714;28;20896;-61
2022/11/04 03:51:42;;;;;;;41.50;6.67;;;10.70;99.90;;;;;;5070004;28;20483;-61
2022/11/04 03:54:09;;;;;;;58.17;9.07;;;;;;;;;;5074792;28;20475;-63
2022/11/04 03:56:45;;;;;;;55.80;8.07;;;;;;;;;;5068534;28;20755;-62
2022/11/04 03:59:40;;;;;;;42.20;6.37;;;10.70;99.90;;;;;;5060804;28;20601;-62
2022/11/04 04:02:14;;;;;;;31.60;6.77;;;10.70;99.90;;;;;;5071605;28;20494;-62
2022/11/04 04:04:48;;;;;;;23.33;5.87;;;10.70;99.90;;;;;;5064145;28;20486;-62
2022/11/04 04:07:18;;;;;;;34.07;7.93;;;10.70;99.90;;;;;;5058305;28;21343;-62
2022/11/04 04:09:52;;;;;;;21.60;5.47;;;10.70;99.90;;;;;;5057091;28;20482;-62
2022/11/04 04:12:30;;;;;;;38.00;7.93;;;10.70;99.90;;;;;;5072457;28;20471;-63
2022/11/04 04:15:01;;;;;;;53.23;6.07;;;;;;;;;;5055538;28;20481;-63
2022/11/04 04:17:31;;;;;;;48.03;11.53;;;;;;;;;;5069583;28;20470;-61
2022/11/04 04:20:02;;;;;;;47.03;6.73;;;10.60;99.90;;;;;;5067223;28;20482;-62
2022/11/04 04:22:32;;;;;;;60.80;12.60;;;10.60;99.90;;;;;;5067513;28;20543;-62
2022/11/04 04:27:48;;;;;;;42.07;7.93;;;10.50;99.90;;;;;;5070863;28;21091;-62
2022/11/04 04:30:16;;;;;;;48.50;10.10;;;10.40;99.90;;;;;;5068536;28;20478;-62
2022/11/04 04:32:45;;;;;;;51.00;5.80;;;;;;;;;;5070010;28;20476;-62
2022/11/04 04:46:13;;;;;;;45.53;8.17;;;10.40;99.90;;;;;;5075635;28;20489;-60
2022/11/04 04:48:40;;;;;;;58.67;9.93;;;;;;;;;;5072348;28;20471;-61
2022/11/04 04:51:09;;;;;;;47.53;7.90;;;;;;;;;;5070363;28;20462;-61
2022/11/04 04:53:36;;;;;;;51.57;7.33;;;;;;;;;;5072974;28;20483;-61
2022/11/04 04:56:03;;;;;;;58.83;7.97;;;;;;;;;;5069084;28;20482;-61
2022/11/04 04:58:30;;;;;;;113.70;15.23;;;;;;;;;;5076256;28;20470;-61
2022/11/04 05:00:57;;;;;;;66.37;8.93;;;;;;;;;;5060691;28;20475;-61
2022/11/04 05:03:25;;;;;;;80.23;14.30;;;;;;;;;;5084941;28;20480;-61
2022/11/04 05:05:52;;;;;;;47.60;7.60;;;10.20;99.90;;;;;;5068356;28;20485;-61
2022/11/04 05:08:20;;;;;;;47.33;9.00;;;10.10;99.90;;;;;;5063836;28;20485;-62
2022/11/04 05:10:47;;;;;;;40.37;6.70;;;10.10;99.90;;;;;;5083331;28;20565;-61
2022/11/04 05:13:25;;;;;;;49.07;8.63;;;10.10;99.90;;;;;;5070659;28;20478;-62
2022/11/04 05:15:53;;;;;;;31.90;6.70;;;;;;;;;;5076441;28;20482;-62
2022/11/04 05:18:20;;;;;;;45.63;12.10;;;10.00;99.90;;;;;;5063333;28;20482;-63
2022/11/04 05:20:46;;;;;;;34.43;6.53;;;10.10;99.90;;;;;;5085900;28;20474;-62
2022/11/04 05:23:13;;;;;;;47.10;9.00;;;10.10;99.90;;;;;;5069088;28;20481;-62
2022/11/04 05:25:42;;;;;;;30.27;5.60;;;;;;;;;;5066710;28;20487;-61
2022/11/04 05:28:09;;;;;;;35.93;7.13;;;10.20;99.90;;;;;;5056301;28;20489;-63
2022/11/04 05:30:36;;;;;;;55.67;8.70;;;;;;;;;;5083877;28;20792;-62
2022/11/04 05:33:03;;;;;;;34.13;7.33;;;10.30;99.90;;;;;;5079222;28;20495;-61
2022/11/04 05:35:30;;;;;;;71.07;11.83;;;;;;;;;;5070279;28;20486;-61
2022/11/04 05:37:57;;;;;;;37.20;6.20;;;10.30;99.90;;;;;;5072202;28;20482;-61
2022/11/04 05:40:24;;;;;;;48.83;11.93;;;;;;;;;;5072279;28;20544;-61
2022/11/04 05:42:53;;;;;;;36.20;7.53;;;;;;;;;;5079712;28;20474;-62
2022/11/04 05:45:20;;;;;;;36.63;8.50;;;10.20;99.90;;;;;;5072742;28;20588;-62
2022/11/04 05:47:46;;;;;;;32.20;7.30;;;10.20;99.90;;;;;;5073353;28;21165;-62
2022/11/04 05:50:13;;;;;;;69.10;10.10;;;10.30;99.90;;;;;;5073767;28;20828;-62
2022/11/04 05:52:40;;;;;;;78.77;11.23;;;;;;;;;;5076058;28;20477;-62
2022/11/04 05:55:08;;;;;;;67.90;8.67;;;10.30;99.90;;;;;;5065691;28;20477;-62
2022/11/04 05:57:37;;;;;;;55.43;9.33;;;;;;;;;;5078298;28;20660;-60
2022/11/04 06:00:06;;;;;;;91.83;11.13;;;10.30;99.90;;;;;;5078879;28;20485;-63
2022/11/04 06:02:33;;;;;;;53.90;9.60;;;;;;;;;;5073733;28;20494;-62
2022/11/04 06:05:00;;;;;;;39.20;8.03;;;10.50;99.90;;;;;;5067555;28;20745;-61
2022/11/04 06:07:27;;;;;;;76.77;14.87;;;10.40;99.90;;;;;;5085750;28;20481;-61
2022/11/04 06:09:55;;;;;;;49.83;7.67;;;10.50;99.90;;;;;;5075245;28;20903;-62
2022/11/04 06:12:22;;;;;;;96.43;15.47;;;;;;;;;;5072074;28;20469;-62
2022/11/04 06:14:49;;;;;;;36.87;7.07;;;;;;;;;;5081747;28;20481;-61
2022/11/04 06:17:18;;;;;;;70.67;12.07;;;;;;;;;;5052727;27;20477;-62
2022/11/04 06:19:45;;;;;;;61.50;10.00;;;10.60;99.90;;;;;;5063531;28;20475;-61
2022/11/04 06:22:14;;;;;;;49.53;8.77;;;10.70;99.90;;;;;;5079152;28;20485;-62
2022/11/04 06:24:41;;;;;;;36.37;7.20;;;;;;;;;;5073284;28;20989;-61
2022/11/04 06:27:08;;;;;;;45.63;8.40;;;10.60;99.90;;;;;;5074634;28;20485;-62
2022/11/04 06:29:38;;;;;;;45.17;6.70;;;10.60;99.90;;;;;;5076694;28;20907;-63
2022/11/04 06:32:05;;;;;;;37.67;6.40;;;10.60;99.90;;;;;;5061005;28;20527;-61
2022/11/04 06:34:34;;;;;;;46.90;9.47;;;10.60;99.90;;;;;;5073039;28;20857;-62
2022/11/04 06:37:01;;;;;;;61.27;11.03;;;;;;;;;;5071949;28;21241;-61
2022/11/04 06:39:28;;;;;;;49.93;10.30;;;;;;;;;;5067967;28;20727;-62
2022/11/04 06:41:57;;;;;;;51.03;6.90;;;10.60;99.90;;;;;;5073863;28;20575;-62
2022/11/04 06:44:24;;;;;;;37.67;10.30;;;10.60;99.90;;;;;;5069018;28;20493;-62
2022/11/04 06:46:51;;;;;;;53.73;10.40;;;10.70;99.90;;;;;;5066974;28;20817;-62
2022/11/04 06:49:19;;;;;;;52.20;10.07;;;10.60;99.90;;;;;;5050565;28;20485;-62
2022/11/04 06:51:48;;;;;;;49.27;8.23;;;10.70;99.90;;;;;;5086745;28;20497;-61
2022/11/04 06:54:16;;;;;;;64.73;11.63;;;;;;;;;;5075478;28;20466;-61
2022/11/04 06:56:43;;;;;;;36.20;7.70;;;10.80;99.90;;;;;;5075055;28;20988;-61
2022/11/04 06:59:14;;;;;;;37.57;6.87;;;;;;;;;;5067148;28;20483;-61
2022/11/04 07:01:41;;;;;;;37.47;7.83;;;10.80;99.90;;;;;;5062228;28;20988;-62
2022/11/04 07:04:09;;;;;;;46.47;8.90;;;10.90;99.90;;;;;;5082397;28;20971;-61
2022/11/04 07:06:36;;;;;;;44.53;6.80;;;;;;;;;;5065009;28;20546;-62
2022/11/04 07:09:05;;;;;;;51.80;7.03;;;11.00;99.90;;;;;;5077613;28;20482;-62
2022/11/04 07:11:32;;;;;;;69.67;11.30;;;11.00;99.90;;;;;;5070896;28;20482;-61
2022/11/04 07:13:59;;;;;;;53.67;9.50;;;;;;;;;;5070778;28;20564;-62
2022/11/04 07:16:26;;;;;;;44.80;9.50;;;11.00;99.90;;;;;;5069929;28;20486;-61
2022/11/04 07:18:54;;;;;;;40.13;6.37;;;;;;;;;;5064902;28;20497;-61
2022/11/04 07:21:21;;;;;;;54.90;12.77;;;;;;;;;;5055494;28;20885;-61
2022/11/04 07:23:48;;;;;;;44.63;7.00;;;11.10;99.90;;;;;;5070940;28;20994;-62
2022/11/04 07:26:16;;;;;;;41.00;7.50;;;11.10;99.90;;;;;;5062621;28;20506;-61
2022/11/04 07:28:43;;;;;;;32.27;7.43;;;;;;;;;;5073200;28;20515;-62
2022/11/04 07:31:13;;;;;;;27.33;6.23;;;11.20;99.90;;;;;;5074165;28;20790;-62
2022/11/04 07:33:39;;;;;;;30.90;6.70;;;11.20;99.90;;;;;;5071559;28;20839;-62
2022/11/04 07:36:08;;;;;;;24.17;7.07;;;11.30;99.90;;;;;;5071615;28;20486;-61
2022/11/04 07:38:35;;;;;;;35.77;6.60;;;11.30;99.90;;;;;;5064962;28;20493;-61
2022/11/04 07:41:02;;;;;;;61.20;9.40;;;11.30;99.90;;;;;;5067855;28;21033;-62
2022/11/04 07:43:30;;;;;;;36.97;10.63;;;11.40;99.90;;;;;;5058609;28;20489;-61
2022/11/04 07:46:00;;;;;;;40.50;6.00;;;;;;;;;;5077879;28;21407;-62
2022/11/04 07:48:28;;;;;;;42.63;10.13;;;;;;;;;;5062729;28;20502;-62
2022/11/04 07:50:56;;;;;;;22.53;5.60;;;11.70;99.90;;;;;;5063685;28;20490;-62
2022/11/04 07:53:23;;;;;;;41.87;8.17;;;;;;;;;;5061851;28;20478;-62
2022/11/04 07:55:50;;;;;;;45.03;6.87;;;;;;;;;;5054362;28;20479;-61
2022/11/04 07:58:17;;;;;;;43.70;8.70;;;11.70;99.90;;;;;;5074604;28;20636;-62
2022/11/04 08:00:45;;;;;;;60.27;7.77;;;11.60;99.90;;;;;;5062345;28;20513;-61
2022/11/04 08:03:12;;;;;;;22.93;6.23;;;11.70;99.90;;;;;;5084119;28;20929;-61
2022/11/04 08:05:39;;;;;;;42.70;7.10;;;;;;;;;;5066768;28;20478;-61
2022/11/04 08:08:07;;;;;;;36.77;7.73;;;11.60;99.90;;;;;;5069722;28;20461;-61
2022/11/04 08:10:34;;;;;;;31.10;6.57;;;11.60;99.90;;;;;;5073490;28;20855;-61
2022/11/04 08:13:01;;;;;;;33.17;6.17;;;;;;;;;;5067290;28;20483;-61
2022/11/04 08:15:29;;;;;;;38.90;9.60;;;;;;;;;;5069624;28;20478;-62
2022/11/04 08:17:57;;;;;;;38.50;8.33;;;11.90;99.90;;;;;;5069028;28;20498;-61
2022/11/04 08:20:24;;;;;;;59.03;10.60;;;11.90;99.90;;;;;;5072433;28;20658;-62
2022/11/04 08:22:51;;;;;;;40.90;7.07;;;12.20;99.90;;;;;;5065210;28;20549;-61
2022/11/04 08:25:18;;;;;;;43.57;9.30;;;12.20;99.90;;;;;;5080517;28;20473;-61
2022/11/04 08:27:47;;;;;;;24.93;6.27;;;12.30;99.90;;;;;;5070404;28;20514;-61
2022/11/04 08:30:14;;;;;;;50.17;9.20;;;12.30;99.90;;;;;;5069785;28;20478;-61
2022/11/04 08:32:41;;;;;;;40.20;7.00;;;;;;;;;;5069674;28;20489;-62
2022/11/04 08:35:10;;;;;;;41.43;7.70;;;;;;;;;;5068592;28;20471;-62
2022/11/04 08:37:37;;;;;;;50.03;8.73;;;11.90;99.90;;;;;;5071852;28;20840;-61
2022/11/04 08:40:06;;;;;;;33.13;6.73;;;11.90;99.90;;;;;;5070283;28;20487;-61
2022/11/04 08:42:33;;;;;;;34.53;7.37;;;12.10;99.90;;;;;;5071979;28;21293;-62
2022/11/04 08:45:00;;;;;;;41.43;7.80;;;12.20;99.90;;;;;;5076943;28;20502;-61
2022/11/04 08:47:27;;;;;;;41.47;9.70;;;12.10;99.90;;;;;;5067429;28;21001;-61
2022/11/04 08:49:54;;;;;;;48.07;7.37;;;;;;;;;;5065118;28;20539;-62
2022/11/04 08:52:22;;;;;;;41.07;11.50;;;;;;;;;;5065524;28;22070;-62
2022/11/04 08:54:49;;;;;;;36.87;7.30;;;12.10;99.90;;;;;;5069769;28;20482;-61
2022/11/04 08:57:16;;;;;;;40.93;8.80;;;;;;;;;;5063923;28;20894;-62
2022/11/04 08:59:43;;;;;;;51.67;9.47;;;12.00;99.90;;;;;;5066743;28;20834;-62
2022/11/04 09:02:14;;;;;;;41.77;8.77;;;;;;;;;;5062694;28;20481;-62
2022/11/04 09:04:41;;;;;;;34.50;6.23;;;;;;;;;;5066507;28;20513;-62
2022/11/04 09:07:08;;;;;;;38.40;7.37;;;12.00;99.90;;;;;;5069307;28;20496;-62
2022/11/04 09:09:38;;;;;;;39.37;7.57;;;12.10;99.90;;;;;;5066148;28;20602;-62
2022/11/04 09:12:08;;;;;;;31.07;6.47;;;10.60;99.90;;;;;;5061686;28;20485;-62
2022/11/04 09:14:35;;;;;;;61.90;8.40;;;;;;;;;;5070317;28;20487;-62
2022/11/04 09:17:02;;;;;;;55.60;9.20;;;12.10;99.90;;;;;;5072149;28;20477;-61
2022/11/04 09:19:29;;;;;;;41.27;9.13;;;12.20;99.90;;;;;;5071071;28;20540;-62
2022/11/04 09:21:56;;;;;;;50.30;8.43;;;;;;;;;;5064423;28;20504;-62
2022/11/04 09:24:23;;;;;;;37.93;8.50;;;12.50;99.90;;;;;;5081222;28;20481;-61
2022/11/04 09:26:51;;;;;;;50.63;10.27;;;12.50;99.90;;;;;;5077933;28;20482;-62
2022/11/04 09:29:18;;;;;;;52.53;8.10;;;12.60;99.90;;;;;;5071227;28;20473;-62
2022/11/04 09:31:45;;;;;;;42.50;6.90;;;;;;;;;;5068234;28;20766;-62
2022/11/04 09:34:11;;;;;;;49.17;6.70;;;12.70;99.90;;;;;;5072572;28;20481;-61
2022/11/04 09:36:38;;;;;;;39.80;7.70;;;;;;;;;;5069500;28;20513;-62
2022/11/04 09:39:05;;;;;;;50.47;10.50;;;12.70;99.90;;;;;;5063923;28;20901;-62
2022/11/04 09:42:00;;;;;;;55.87;8.80;;;12.80;99.90;;;;;;5067325;28;20489;-62
2022/11/04 09:44:31;;;;;;;74.93;12.40;;;;;;;;;;5063670;28;20478;-62
2022/11/04 09:47:00;;;;;;;64.50;12.00;;;;;;;;;;5071389;28;20669;-61
2022/11/04 09:49:28;;;;;;;81.63;14.43;;;;;;;;;;5062880;28;20485;-62
2022/11/04 09:51:57;;;;;;;47.97;6.77;;;13.20;99.90;;;;;;5073747;28;21182;-62
2022/11/04 09:54:25;;;;;;;58.07;11.23;;;;;;;;;;5068176;28;20540;-61
2022/11/04 09:56:57;;;;;;;51.73;11.80;;;13.20;99.90;;;;;;5066748;28;20471;-61
2022/11/04 09:59:26;;;;;;;69.80;13.33;;;;;;;;;;5072576;28;20486;-61
2022/11/04 10:02:11;;;;;;;39.83;6.33;;;13.00;99.90;;;;;;5068186;28;20482;-61
2022/11/04 10:04:45;;;;;;;32.57;5.30;;;;;;;;;;5071983;28;20623;-62
2022/11/04 10:07:21;;;;;;;51.70;8.10;;;;;;;;;;5076877;28;20939;-63
2022/11/04 10:09:53;;;;;;;56.23;6.70;;;;;;;;;;5070262;28;20666;-62
2022/11/04 10:12:26;;;;;;;73.13;12.60;;;;;;;;;;5071707;28;20486;-62
2022/11/04 10:15:02;;;;;;;57.13;8.23;;;;;;;;;;5069030;28;21442;-63
2022/11/04 10:17:47;;;;;;;60.03;11.13;;;13.00;99.90;;;;;;5063173;28;20489;-62
2022/11/04 10:20:22;;;;;;;36.53;6.83;;;;;;;;;;5082511;28;20478;-61
2022/11/04 10:22:57;;;;;;;47.37;8.07;;;13.00;99.90;;;;;;5068863;28;20477;-63
2022/11/04 10:25:26;;;;;;;50.43;9.53;;;;;;;;;;5077610;28;21047;-61
2022/11/04 10:27:52;;;;;;;41.37;7.40;;;12.90;99.90;;;;;;5069183;28;20478;-61
2022/11/04 10:30:21;;;;;;;62.90;12.50;;;;;;;;;;5079592;28;20466;-61
2022/11/04 10:32:59;;;;;;;84.90;9.10;;;12.70;99.90;;;;;;5072509;28;20486;-62
2022/11/04 10:35:29;;;;;;;120.60;16.13;;;;;;;;;;5073434;28;20481;-62
2022/11/04 10:38:00;;;;;;;70.50;9.83;;;12.80;99.90;;;;;;5064874;28;20473;-63
2022/11/04 10:40:35;;;;;;;44.70;9.93;;;12.90;99.90;;;;;;5070145;28;20482;-62
2022/11/04 10:43:08;;;;;;;29.40;5.53;;;12.80;99.90;;;;;;5071478;28;20527;-61
2022/11/04 10:45:41;;;;;;;41.40;6.83;;;;;;;;;;5071951;28;20988;-61
2022/11/04 10:48:16;;;;;;;26.10;6.90;;;13.00;99.90;;;;;;5077937;28;20476;-61
2022/11/04 10:50:46;;;;;;;35.40;6.10;;;;;;;;;;5077499;28;20485;-62
2022/11/04 10:53:14;;;;;;;31.00;6.33;;;;;;;;;;5069884;28;20469;-63
2022/11/04 10:55:48;;;;;;;46.93;8.70;;;13.00;99.90;;;;;;5075200;28;21904;-61
2022/11/04 10:58:18;;;;;;;38.03;8.27;;;;;;;;;;5065969;28;20509;-61
2022/11/04 11:00:46;;;;;;;41.63;7.50;;;;;;;;;;5076336;28;20470;-61
2022/11/04 11:03:30;;;;;;;59.63;9.27;;;13.00;99.90;;;;;;5073920;28;20478;-62
2022/11/04 11:06:26;;;;;;;35.63;6.20;;;13.00;99.90;;;;;;5065811;28;20486;-62
2022/11/04 11:08:54;;;;;;;37.43;7.40;;;13.10;99.90;;;;;;5030590;28;20478;-61
2022/11/04 11:11:46;;;;;;;54.47;17.53;;;13.20;99.90;;;;;;5069206;28;20573;-61
2022/11/04 11:14:17;;;;;;;29.80;7.97;;;;;;;;;;5061076;28;20586;-61
2022/11/04 11:16:44;;;;;;;23.37;6.07;;;14.60;99.90;;;;;;5075320;28;20490;-62
2022/11/04 11:19:18;;;;;;;42.13;7.00;;;;;;;;;;5062437;28;20579;-62
2022/11/04 11:21:47;;;;;;;54.27;8.50;;;12.60;99.90;;;;;;5077889;28;20480;-61
2022/11/04 11:24:16;;;;;;;54.67;7.83;;;;;;;;;;5073080;28;20528;-62
2022/11/04 11:26:48;;;;;;;53.80;8.07;;;12.30;99.90;;;;;;5049319;28;20594;-63
2022/11/04 11:29:22;;;;;;;54.67;10.43;;;12.20;99.90;;;;;;5082426;28;20479;-62
2022/11/04 11:31:50;;;;;;;39.23;6.70;;;;;;;;;;5066642;28;20535;-63
2022/11/04 11:34:22;;;;;;;56.10;10.80;;;12.00;99.90;;;;;;5078515;28;20485;-62
2022/11/04 11:36:52;;;;;;;48.03;9.07;;;12.00;99.90;;;;;;5069654;28;20473;-63
2022/11/04 11:39:21;;;;;;;45.90;10.73;;;12.00;99.90;;;;;;5075236;28;20496;-62
2022/11/04 11:41:50;;;;;;;42.10;8.13;;;;;;;;;;5072259;28;20985;-62
2022/11/04 11:44:24;;;;;;;41.70;8.27;;;;;;;;;;5070266;28;20493;-62
2022/11/04 11:46:54;;;;;;;52.30;11.10;;;;;;;;;;5073366;28;20533;-62
2022/11/04 11:49:29;;;;;;;64.87;14.13;;;12.20;99.90;;;;;;5070931;28;20907;-62
2022/11/04 11:51:56;;;;;;;28.03;6.33;;;;;;;;;;5076581;28;21117;-61
2022/11/04 11:54:32;;;;;;;63.03;12.80;;;12.40;99.90;;;;;;5068322;28;20478;-61
2022/11/04 11:57:04;;;;;;;38.43;9.33;;;12.60;99.90;;;;;;5065083;28;21154;-62
2022/11/04 11:59:34;;;;;;;45.33;8.80;;;;;;;;;;5062837;28;20575;-62
2022/11/04 12:02:05;;;;;;;35.10;8.27;;;;;;;;;;5049698;28;20608;-61
2022/11/04 12:04:35;;;;;;;28.73;7.73;;;12.70;99.90;;;;;;5067276;28;20487;-62
2022/11/04 12:07:09;;;;;;;34.20;8.30;;;12.80;99.90;;;;;;5069836;28;20485;-62
2022/11/04 12:09:41;;;;;;;28.13;5.60;;;12.70;99.90;;;;;;5055734;28;20829;-62
2022/11/04 12:12:22;;;;;;;37.83;7.30;;;12.70;99.90;;;;;;5058764;28;20532;-61
2022/11/04 12:15:01;;;;;;;32.83;6.77;;;12.80;99.90;;;;;;5061942;28;20470;-62
2022/11/04 12:17:44;;;;;;;30.80;8.80;;;12.80;99.90;;;;;;5067621;28;20871;-61
2022/11/04 12:20:30;;;;;;;61.27;8.80;;;12.90;99.90;;;;;;5065770;28;20509;-61
2022/11/04 12:23:05;;;;;;;32.20;6.90;;;12.90;99.90;;;;;;5075167;28;20556;-62
2022/11/04 12:25:36;;;;;;;43.20;10.07;;;13.00;99.90;;;;;;5064380;28;20904;-62
2022/11/04 12:28:08;;;;;;;43.50;8.73;;;;;;;;;;5078093;28;20483;-62
2022/11/04 12:30:39;;;;;;;38.47;6.50;;;;;;;;;;5062434;28;20562;-61
2022/11/04 12:33:20;;;;;;;43.80;9.20;;;13.20;99.90;;;;;;5059156;28;20489;-61
2022/11/04 12:36:02;;;;;;;32.87;5.80;;;13.30;99.90;;;;;;5048499;28;21178;-62
2022/11/04 12:39:00;;;;;;;58.70;11.13;;;13.30;99.90;;;;;;5054140;28;20486;-62
2022/11/04 12:41:36;;;;;;;41.03;10.13;;;13.30;99.90;;;;;;5053317;28;20478;-61
2022/11/04 12:44:13;;;;;;;47.83;9.97;;;13.40;99.90;;;;;;5067209;28;20606;-62
2022/11/04 12:46:47;;;;;;;32.77;5.67;;;13.50;99.90;;;;;;5073922;28;20492;-61
2022/11/04 12:49:35;;;;;;;32.63;7.00;;;;;;;;;;5069629;28;20593;-61
2022/11/04 12:52:12;;;;;;;43.73;6.47;;;13.50;99.90;;;;;;5056944;28;20541;-61
2022/11/04 12:54:44;;;;;;;50.17;8.30;;;;;;;;;;5071017;28;21162;-61
2022/11/04 12:57:16;;;;;;;37.53;6.80;;;;;;;;;;5066143;28;20482;-61
2022/11/04 13:00:02;;;;;;;45.83;7.63;;;13.30;99.90;;;;;;5063401;28;20498;-61
2022/11/04 13:02:33;;;;;;;65.13;11.50;;;13.50;99.90;;;;;;5067901;28;20577;-61
2022/11/04 13:05:03;;;;;;;43.20;7.30;;;;;;;;;;5073334;28;21040;-61
2022/11/04 13:07:35;;;;;;;78.13;13.30;;;13.60;99.90;;;;;;5067424;28;21128;-62
2022/11/04 13:10:06;;;;;;;46.73;9.33;;;;;;;;;;5059056;28;20479;-62
2022/11/04 13:12:38;;;;;;;56.63;10.47;;;13.60;99.90;;;;;;5060465;28;20509;-61
2022/11/04 13:15:14;;;;;;;67.53;9.20;;;13.80;99.90;;;;;;5065881;28;20470;-62
2022/11/04 13:17:43;;;;;;;48.17;8.63;;;13.80;99.90;;;;;;5044677;28;21091;-62
2022/11/04 13:20:21;;;;;;;40.90;8.60;;;13.80;99.90;;;;;;5069571;28;20488;-61
2022/11/04 13:22:53;;;;;;;32.17;6.80;;;13.90;99.90;;;;;;5065479;28;20540;-62
2022/11/04 13:25:23;;;;;;;33.93;8.70;;;;;;;;;;5059687;28;20644;-59
2022/11/04 13:27:51;;;;;;;31.50;7.07;;;;;;;;;;5057373;28;20471;-61
2022/11/04 13:30:21;;;;;;;80.03;12.73;;;14.00;99.90;;;;;;5067941;28;20482;-61
2022/11/04 13:32:53;;;;;;;26.60;6.40;;;14.10;99.90;;;;;;5067297;28;20482;-60
2022/11/04 13:35:26;;;;;;;48.03;10.67;;;14.10;99.90;;;;;;5070200;28;20470;-61
2022/11/04 13:37:59;;;;;;;32.77;7.50;;;14.10;99.90;;;;;;5058908;28;20485;-61
2022/11/04 13:40:33;;;;;;;46.70;10.63;;;14.00;99.90;;;;;;5053130;28;20482;-61
2022/11/04 13:43:38;;;;;;;44.03;6.77;;;13.80;99.90;;;;;;5051996;28;20485;-61
2022/11/04 13:46:07;;;;;;;50.43;7.90;;;;;;;;;;5048213;28;20505;-61
2022/11/04 13:48:36;;;;;;;49.20;8.10;;;13.70;99.90;;;;;;5064848;28;20594;-61
2022/11/04 13:51:07;;;;;;;66.27;9.30;;;;;;;;;;5058961;28;20578;-60
2022/11/04 13:53:45;;;;;;;28.23;6.20;;;;;;;;;;5068266;28;20481;-61
2022/11/04 13:56:30;;;;;;;57.90;10.33;;;13.70;99.90;;;;;;5057884;28;20469;-61
2022/11/04 13:59:02;;;;;;;39.10;7.60;;;13.80;99.90;;;;;;5069470;28;20478;-61
2022/11/04 14:01:30;;;;;;;49.63;12.90;;;;;;;;;;5068005;28;20483;-61